Time;durP1;ratioP1;P1;durP2;ratioP2;P2;SDS_P1;SDS_P2;PMS_P1;PMS_P2;Temp;Humidity;BMP_temperature;BMP_pressure;BME280_temperature;BME280_humidity;BME280_pressure;Samples;Min_cycle;Max_cycle;Signal;HPM_P1;HPM_P2
2022/01/05 00:02:12;;;;;;;0.73;0.15;;;5.20;83.60;;;;;;5054166;28;20024;-73
2022/01/05 00:04:38;;;;;;;0.50;0.10;;;5.20;82.00;;;;;;5058602;28;20033;-72
2022/01/05 00:07:05;;;;;;;0.47;0.10;;;5.30;82.20;;;;;;5067084;28;20032;-72
2022/01/05 00:09:30;;;;;;;0.22;0.10;;;5.30;82.20;;;;;;5054510;28;20021;-73
2022/01/05 00:11:56;;;;;;;0.80;0.30;;;5.40;82.10;;;;;;5053770;28;20047;-73
2022/01/05 00:14:22;;;;;;;0.30;0.08;;;5.30;82.30;;;;;;5053869;28;20478;-73
2022/01/05 00:16:47;;;;;;;0.75;0.20;;;5.20;82.30;;;;;;5053747;28;20032;-72
2022/01/05 00:19:13;;;;;;;1.15;0.10;;;5.20;82.40;;;;;;5053722;28;20420;-73
2022/01/05 00:21:40;;;;;;;0.13;0.13;;;5.20;82.80;;;;;;5035781;28;20028;-72
2022/01/05 00:24:07;;;;;;;0.10;0.00;;;5.20;82.90;;;;;;5053584;28;20025;-74
2022/01/05 00:26:33;;;;;;;0.22;0.10;;;5.20;82.70;;;;;;5053209;28;20029;-73
2022/01/05 00:28:58;;;;;;;0.00;0.00;;;5.20;82.20;;;;;;5053422;28;20025;-73
2022/01/05 00:31:25;;;;;;;1.85;0.10;;;5.20;81.80;;;;;;5053444;28;20363;-74
2022/01/05 00:33:50;;;;;;;0.00;0.00;;;5.20;81.50;;;;;;5053482;28;20497;-75
2022/01/05 00:36:17;;;;;;;0.20;0.20;;;5.30;81.10;;;;;;5035391;28;20059;-74
2022/01/05 00:38:43;;;;;;;0.40;0.20;;;5.30;79.70;;;;;;5033354;28;20022;-74
2022/01/05 00:41:08;;;;;;;0.73;0.00;;;5.30;79.30;;;;;;5033436;28;20072;-74
2022/01/05 00:43:34;;;;;;;0.00;0.00;;;5.30;78.20;;;;;;5033240;28;20485;-76
2022/01/05 00:46:00;;;;;;;0.57;0.10;;;5.40;78.90;;;;;;5033292;28;20105;-75
2022/01/05 00:48:26;;;;;;;0.30;0.17;;;5.30;79.50;;;;;;5033395;28;20061;-76
2022/01/05 00:50:51;;;;;;;0.57;0.10;;;5.20;79.60;;;;;;5033147;28;20544;-75
2022/01/05 00:53:17;;;;;;;0.20;0.00;;;5.20;80.10;;;;;;5033278;28;20104;-76
2022/01/05 00:55:42;;;;;;;0.63;0.30;;;5.20;80.00;;;;;;5033158;28;20049;-76
2022/01/05 00:58:08;;;;;;;0.15;0.10;;;5.20;79.80;;;;;;5033336;28;20594;-76
2022/01/05 01:00:34;;;;;;;0.50;0.28;;;5.20;80.10;;;;;;5033096;28;20036;-75
2022/01/05 01:02:59;;;;;;;0.10;0.08;;;5.20;80.10;;;;;;5015427;28;20067;-75
2022/01/05 01:05:25;;;;;;;1.85;0.20;;;5.10;79.70;;;;;;5042118;28;20028;-75
2022/01/05 01:07:51;;;;;;;0.20;0.10;;;5.10;79.30;;;;;;5039208;28;20535;-75
2022/01/05 01:10:16;;;;;;;0.15;0.00;;;5.10;79.20;;;;;;5035037;28;20036;-74
2022/01/05 01:12:42;;;;;;;0.93;0.28;;;5.20;79.60;;;;;;5032835;28;20033;-73
2022/01/05 01:15:10;;;;;;;1.05;0.25;;;5.20;79.80;;;;;;5032895;28;20084;-74
2022/01/05 01:17:35;;;;;;;0.20;0.00;;;5.10;78.80;;;;;;5032883;28;20028;-74
2022/01/05 01:20:01;;;;;;;0.75;0.10;;;5.10;79.10;;;;;;5032807;28;20021;-73
2022/01/05 01:22:29;;;;;;;0.40;0.10;;;5.10;79.00;;;;;;5032681;28;20478;-74
2022/01/05 01:24:55;;;;;;;0.10;0.10;;;5.20;78.80;;;;;;5032949;28;20562;-74
2022/01/05 01:27:20;;;;;;;1.25;0.10;;;5.20;78.60;;;;;;5032722;28;20030;-73
2022/01/05 01:29:46;;;;;;;1.00;0.40;;;5.20;79.40;;;;;;5032109;28;20036;-73
2022/01/05 01:32:12;;;;;;;0.20;0.10;;;5.10;78.30;;;;;;5014845;28;20029;-74
2022/01/05 01:34:37;;;;;;;0.85;0.10;;;5.20;77.40;;;;;;5036851;28;20125;-73
2022/01/05 01:37:03;;;;;;;1.25;0.17;;;5.20;77.60;;;;;;5052727;28;20029;-73
2022/01/05 01:39:29;;;;;;;0.57;0.10;;;5.20;78.20;;;;;;5056401;28;20036;-73
2022/01/05 01:41:54;;;;;;;0.30;0.28;;;5.20;78.70;;;;;;5056706;28;20037;-74
2022/01/05 01:44:20;;;;;;;0.30;0.10;;;5.20;78.20;;;;;;5056499;28;20021;-74
2022/01/05 01:46:46;;;;;;;0.73;0.08;;;5.30;77.80;;;;;;5056476;28;20060;-73
2022/01/05 01:49:12;;;;;;;1.48;0.30;;;5.30;77.70;;;;;;5056541;28;20044;-74
2022/01/05 01:51:37;;;;;;;0.03;0.03;;;5.20;78.70;;;;;;5056367;28;20107;-74
2022/01/05 01:54:03;;;;;;;0.52;0.10;;;5.20;78.70;;;;;;5056488;28;20036;-74
2022/01/05 01:56:32;;;;;;;0.03;0.00;;;5.20;79.80;;;;;;5056500;28;20032;-73
2022/01/05 01:58:59;;;;;;;0.45;0.10;;;5.10;79.90;;;;;;5056386;28;20112;-74
2022/01/05 02:01:24;;;;;;;1.85;0.00;;;5.10;80.90;;;;;;5056309;28;20021;-74
2022/01/05 02:03:50;;;;;;;0.00;0.00;;;5.10;80.40;;;;;;5056323;28;20052;-74
2022/01/05 02:06:16;;;;;;;0.57;0.10;;;5.10;80.40;;;;;;5055789;28;20024;-74
2022/01/05 02:08:42;;;;;;;0.10;0.00;;;5.10;81.20;;;;;;5056297;28;20041;-74
2022/01/05 02:11:08;;;;;;;0.05;0.05;;;5.10;81.10;;;;;;5038294;28;20028;-73
2022/01/05 02:13:34;;;;;;;1.65;0.13;;;5.10;81.10;;;;;;5055965;28;20029;-73
2022/01/05 02:16:00;;;;;;;0.22;0.10;;;5.10;81.30;;;;;;5055958;28;20029;-73
2022/01/05 02:21:05;;;;;;;0.10;0.10;;;5.00;82.20;;;;;;5055983;28;20378;-75
2022/01/05 02:23:32;;;;;;;0.10;0.10;;;5.00;81.90;;;;;;5056072;28;20091;-74
2022/01/05 02:25:58;;;;;;;0.20;0.17;;;4.90;82.90;;;;;;5038192;28;20132;-75
2022/01/05 02:28:23;;;;;;;0.43;0.10;;;4.90;82.90;;;;;;5055906;28;20477;-76
2022/01/05 02:30:52;;;;;;;0.10;0.10;;;4.90;82.90;;;;;;5055712;28;20025;-75
2022/01/05 02:33:19;;;;;;;0.10;0.10;;;4.90;83.10;;;;;;5055914;28;20167;-75
2022/01/05 02:35:45;;;;;;;0.10;0.10;;;4.80;83.00;;;;;;5037658;28;20041;-74
2022/01/05 02:38:11;;;;;;;0.20;0.10;;;4.90;83.30;;;;;;5055531;28;20048;-75
2022/01/05 02:40:36;;;;;;;0.10;0.10;;;4.80;83.60;;;;;;5055514;28;20096;-75
2022/01/05 02:43:02;;;;;;;0.00;0.00;;;4.80;84.10;;;;;;5055487;28;20107;-74
2022/01/05 02:45:28;;;;;;;0.10;0.08;;;4.60;83.90;;;;;;5055587;28;20047;-75
2022/01/05 02:47:54;;;;;;;0.20;0.08;;;4.60;84.40;;;;;;5055447;28;20036;-75
2022/01/05 02:50:20;;;;;;;0.65;0.03;;;4.60;84.50;;;;;;5055313;28;20106;-75
2022/01/05 02:52:45;;;;;;;0.10;0.10;;;4.60;83.90;;;;;;5037354;28;20064;-74
2022/01/05 02:55:12;;;;;;;0.20;0.00;;;4.50;83.90;;;;;;5055379;28;20029;-75
2022/01/05 02:57:38;;;;;;;0.00;0.00;;;4.40;85.00;;;;;;5055236;28;20021;-74
2022/01/05 03:00:06;;;;;;;0.13;0.00;;;4.40;85.00;;;;;;5055375;28;20021;-75
2022/01/05 03:02:32;;;;;;;0.00;0.00;;;4.40;85.00;;;;;;5055089;28;20039;-75
2022/01/05 03:04:57;;;;;;;0.38;0.05;;;4.30;85.40;;;;;;5055270;28;20029;-75
2022/01/05 03:07:23;;;;;;;0.00;0.00;;;4.30;86.00;;;;;;5055073;28;20037;-76
2022/01/05 03:09:48;;;;;;;0.70;0.00;;;4.20;86.50;;;;;;5055177;28;20060;-74
2022/01/05 03:12:14;;;;;;;0.40;0.00;;;4.20;86.90;;;;;;5037666;28;20123;-76
2022/01/05 03:14:40;;;;;;;0.00;0.00;;;4.10;87.00;;;;;;5043591;28;20027;-74
2022/01/05 03:17:06;;;;;;;0.00;0.00;;;4.10;87.50;;;;;;5070086;28;20017;-74
2022/01/05 03:19:31;;;;;;;0.10;0.00;;;4.10;87.60;;;;;;5046374;28;20110;-75
2022/01/05 03:21:57;;;;;;;0.00;0.00;;;4.20;87.30;;;;;;5066017;28;20110;-74
2022/01/05 03:24:22;;;;;;;0.10;0.10;;;4.10;87.30;;;;;;5055806;28;20032;-73
2022/01/05 03:26:48;;;;;;;0.08;0.00;;;4.10;87.40;;;;;;5054621;28;20063;-73
2022/01/05 03:29:13;;;;;;;1.20;0.10;;;4.10;88.00;;;;;;5054741;28;20017;-73
2022/01/05 03:31:39;;;;;;;0.10;0.00;;;4.00;87.30;;;;;;5054690;28;20028;-73
2022/01/05 03:34:06;;;;;;;0.00;0.00;;;4.00;87.50;;;;;;5054547;28;20466;-73
2022/01/05 03:36:32;;;;;;;0.00;0.00;;;4.00;87.30;;;;;;5054554;28;20043;-73
2022/01/05 03:38:57;;;;;;;0.00;0.00;;;4.00;87.60;;;;;;5054598;28;20031;-73
2022/01/05 03:41:23;;;;;;;0.08;0.00;;;4.00;87.20;;;;;;5054400;28;20104;-73
2022/01/05 03:43:48;;;;;;;0.00;0.00;;;4.00;87.50;;;;;;5054356;28;20033;-74
2022/01/05 03:46:14;;;;;;;0.00;0.00;;;4.10;87.80;;;;;;5069725;28;20048;-74
2022/01/05 03:48:40;;;;;;;0.00;0.00;;;4.00;86.60;;;;;;5054434;28;20025;-75
2022/01/05 03:51:06;;;;;;;0.00;0.00;;;4.10;86.60;;;;;;5055455;28;20025;-73
2022/01/05 03:53:31;;;;;;;0.00;0.00;;;4.00;86.10;;;;;;5066246;28;20489;-74
2022/01/05 03:55:57;;;;;;;0.43;0.00;;;4.00;86.80;;;;;;5054727;28;20020;-73
2022/01/05 03:58:23;;;;;;;0.50;0.05;;;4.00;86.30;;;;;;5054128;28;20087;-73
2022/01/05 04:00:51;;;;;;;0.00;0.00;;;4.00;86.00;;;;;;5053501;28;20053;-75
2022/01/05 04:03:18;;;;;;;0.00;0.00;;;4.10;86.00;;;;;;5068444;28;20025;-74
2022/01/05 04:05:43;;;;;;;0.40;0.10;;;4.00;86.60;;;;;;5059709;28;20403;-73
2022/01/05 04:08:09;;;;;;;0.10;0.00;;;4.00;86.10;;;;;;5053908;28;20064;-74
2022/01/05 04:10:35;;;;;;;0.43;0.00;;;4.00;86.20;;;;;;5053903;28;20029;-74
2022/01/05 04:13:01;;;;;;;0.20;0.00;;;4.00;86.20;;;;;;5053925;28;20056;-75
2022/01/05 04:15:27;;;;;;;0.28;0.10;;;4.00;85.80;;;;;;5053879;28;20063;-75
2022/01/05 04:17:53;;;;;;;0.20;0.20;;;4.10;85.70;;;;;;5053742;28;20017;-75
2022/01/05 04:20:19;;;;;;;0.10;0.10;;;4.00;85.10;;;;;;5053744;28;20070;-75
2022/01/05 04:22:45;;;;;;;0.00;0.00;;;4.00;85.30;;;;;;5053829;28;20025;-75
2022/01/05 04:25:11;;;;;;;0.10;0.00;;;4.00;85.50;;;;;;5053678;28;20604;-73
2022/01/05 04:27:37;;;;;;;0.00;0.00;;;4.00;85.90;;;;;;5035783;28;20021;-73
2022/01/05 04:30:05;;;;;;;0.05;0.00;;;4.10;85.70;;;;;;5035832;28;20368;-75
2022/01/05 04:32:31;;;;;;;0.00;0.00;;;4.00;85.80;;;;;;5027332;28;20486;-75
2022/01/05 04:34:56;;;;;;;0.57;0.00;;;4.10;85.30;;;;;;5035364;28;20075;-74
2022/01/05 04:37:22;;;;;;;0.00;0.00;;;4.00;86.20;;;;;;5035412;28;20039;-74
2022/01/05 04:39:49;;;;;;;0.05;0.03;;;4.00;85.20;;;;;;5035375;28;20086;-75
2022/01/05 04:42:14;;;;;;;0.00;0.00;;;4.00;85.60;;;;;;5035639;28;20116;-75
2022/01/05 04:44:40;;;;;;;0.00;0.00;;;4.00;85.70;;;;;;5035416;28;20115;-76
2022/01/05 04:47:07;;;;;;;0.00;0.00;;;3.90;85.80;;;;;;5053204;28;20025;-73
2022/01/05 04:49:33;;;;;;;0.10;0.00;;;3.90;86.50;;;;;;5035365;28;20025;-74
2022/01/05 04:51:58;;;;;;;0.10;0.10;;;3.90;86.80;;;;;;5035420;28;20024;-76
2022/01/05 04:54:24;;;;;;;0.00;0.00;;;4.00;86.10;;;;;;5035206;28;20048;-75
2022/01/05 04:56:49;;;;;;;0.70;0.40;;;4.00;86.10;;;;;;5035060;28;20120;-74
2022/01/05 04:59:15;;;;;;;0.90;0.40;;;4.00;86.50;;;;;;5035343;28;20430;-75
2022/01/05 05:01:41;;;;;;;0.30;0.30;;;4.00;86.40;;;;;;5052984;28;20048;-75
2022/01/05 05:04:06;;;;;;;0.20;0.20;;;4.00;86.30;;;;;;5035217;28;20083;-74
2022/01/05 05:06:32;;;;;;;0.35;0.35;;;4.00;86.70;;;;;;5035216;28;20024;-76
2022/01/05 05:08:58;;;;;;;0.32;0.22;;;4.10;86.70;;;;;;5035175;28;20025;-75
2022/01/05 05:11:23;;;;;;;0.47;0.00;;;4.10;86.90;;;;;;5035220;28;20021;-75
2022/01/05 05:13:49;;;;;;;0.10;0.10;;;4.20;86.50;;;;;;5052747;28;20036;-74
2022/01/05 05:16:14;;;;;;;0.20;0.10;;;4.20;85.80;;;;;;5034968;28;20025;-75
2022/01/05 05:18:40;;;;;;;0.22;0.10;;;4.20;85.80;;;;;;5034974;28;20481;-76
2022/01/05 05:21:06;;;;;;;1.08;0.10;;;4.20;86.50;;;;;;5052822;28;20078;-76
2022/01/05 05:23:31;;;;;;;0.75;0.30;;;4.30;86.40;;;;;;5052790;28;20531;-75
2022/01/05 05:25:57;;;;;;;0.65;0.52;;;4.30;86.20;;;;;;5034875;28;20377;-74
2022/01/05 05:28:22;;;;;;;5.28;0.10;;;4.30;86.30;;;;;;5034380;28;20025;-74
2022/01/05 05:30:48;;;;;;;0.15;0.10;;;4.40;86.30;;;;;;5034633;28;20033;-76
2022/01/05 05:33:14;;;;;;;1.45;0.10;;;4.30;85.10;;;;;;5034506;28;20063;-75
2022/01/05 05:35:41;;;;;;;0.15;0.15;;;4.30;85.50;;;;;;5052345;28;20067;-75
2022/01/05 05:38:07;;;;;;;0.03;0.03;;;4.30;85.40;;;;;;5034805;28;20033;-75
2022/01/05 05:40:32;;;;;;;0.10;0.10;;;4.40;84.90;;;;;;5052523;28;20037;-75
2022/01/05 05:42:58;;;;;;;0.10;0.10;;;4.40;84.50;;;;;;5052677;28;20079;-75
2022/01/05 05:45:24;;;;;;;0.95;0.30;;;4.40;84.40;;;;;;5034598;28;20025;-75
2022/01/05 05:47:49;;;;;;;0.63;0.32;;;4.30;84.90;;;;;;5052659;28;20029;-75
2022/01/05 05:50:15;;;;;;;0.63;0.38;;;4.30;84.90;;;;;;5034718;28;20040;-75
2022/01/05 05:52:41;;;;;;;0.55;0.10;;;4.20;85.70;;;;;;5034679;28;20036;-74
2022/01/05 05:55:07;;;;;;;0.20;0.20;;;4.00;85.90;;;;;;5034690;28;20035;-75
2022/01/05 05:57:32;;;;;;;1.13;0.30;;;4.00;86.80;;;;;;5034571;28;20033;-76
2022/01/05 05:59:58;;;;;;;3.72;1.80;;;3.80;88.00;;;;;;5052439;28;20021;-75
2022/01/05 06:02:23;;;;;;;0.30;0.20;;;3.80;88.60;;;;;;5052386;28;20112;-75
2022/01/05 06:04:49;;;;;;;0.52;0.40;;;3.80;88.50;;;;;;5034439;28;20039;-75
2022/01/05 06:07:14;;;;;;;0.52;0.43;;;3.70;88.80;;;;;;5034557;28;20444;-74
2022/01/05 06:09:40;;;;;;;4.38;1.45;;;3.50;88.00;;;;;;5034402;28;20021;-76
2022/01/05 06:12:06;;;;;;;0.30;0.30;;;3.50;88.30;;;;;;5052430;28;20029;-76
2022/01/05 06:14:31;;;;;;;1.55;0.63;;;3.40;88.20;;;;;;5034614;28;20021;-76
2022/01/05 06:16:57;;;;;;;1.83;0.93;;;3.40;88.90;;;;;;5067602;28;20029;-74
2022/01/05 06:19:22;;;;;;;2.80;1.52;;;3.30;89.20;;;;;;5056352;28;20029;-73
2022/01/05 06:21:50;;;;;;;3.90;1.48;;;3.40;89.40;;;;;;5034592;28;20033;-75
2022/01/05 06:24:16;;;;;;;1.10;0.80;;;3.40;89.60;;;;;;5036194;28;20025;-73
2022/01/05 06:26:41;;;;;;;1.08;0.98;;;3.40;89.70;;;;;;5055886;28;20094;-73
2022/01/05 06:29:08;;;;;;;0.55;0.55;;;3.40;89.60;;;;;;5055775;28;20141;-74
2022/01/05 06:31:34;;;;;;;0.85;0.73;;;3.40;89.40;;;;;;5037791;28;20111;-75
2022/01/05 06:33:59;;;;;;;1.00;0.88;;;3.50;89.40;;;;;;5055736;28;20540;-75
2022/01/05 06:36:25;;;;;;;0.50;0.50;;;3.40;86.40;;;;;;5037532;28;20049;-73
2022/01/05 06:38:50;;;;;;;1.30;0.73;;;3.40;85.60;;;;;;5055568;28;20108;-74
2022/01/05 06:41:16;;;;;;;0.98;0.50;;;3.40;85.20;;;;;;5055272;28;20029;-74
2022/01/05 06:43:42;;;;;;;1.40;0.75;;;3.40;84.80;;;;;;5037498;28;20032;-74
2022/01/05 06:46:07;;;;;;;1.10;0.60;;;3.40;83.80;;;;;;5037460;28;20545;-75
2022/01/05 06:48:33;;;;;;;0.30;0.30;;;3.30;84.10;;;;;;5037487;28;20362;-73
2022/01/05 06:50:58;;;;;;;0.85;0.50;;;3.30;84.10;;;;;;5037053;28;20080;-75
2022/01/05 06:53:24;;;;;;;0.70;0.52;;;3.30;83.90;;;;;;5037030;28;20500;-74
2022/01/05 06:55:49;;;;;;;0.95;0.70;;;3.30;83.90;;;;;;5037266;28;20033;-74
2022/01/05 06:58:15;;;;;;;0.60;0.60;;;3.30;83.60;;;;;;5037083;28;20091;-75
2022/01/05 07:00:41;;;;;;;2.00;1.10;;;3.30;84.10;;;;;;5054889;28;20025;-75
2022/01/05 07:03:06;;;;;;;1.35;1.10;;;3.30;84.10;;;;;;5037199;28;20412;-74
2022/01/05 07:05:32;;;;;;;7.70;3.55;;;3.30;84.20;;;;;;5036820;28;20049;-75
2022/01/05 07:07:58;;;;;;;2.03;0.93;;;3.30;84.70;;;;;;5037052;28;20496;-74
2022/01/05 07:10:24;;;;;;;2.70;1.25;;;3.20;84.60;;;;;;5037065;28;20021;-74
2022/01/05 07:12:49;;;;;;;3.70;1.83;;;3.20;84.80;;;;;;5036780;28;20076;-75
2022/01/05 07:15:16;;;;;;;12.63;3.40;;;3.20;84.70;;;;;;5037177;28;20017;-75
2022/01/05 07:17:42;;;;;;;8.25;3.17;;;3.20;85.20;;;;;;5036722;28;20064;-75
2022/01/05 07:20:10;;;;;;;16.10;5.03;;;3.20;85.60;;;;;;5054466;28;20076;-76
2022/01/05 07:22:37;;;;;;;14.10;4.05;;;3.20;85.80;;;;;;5036588;28;20029;-75
2022/01/05 07:25:03;;;;;;;18.92;6.03;;;3.00;86.70;;;;;;5036444;28;20083;-76
2022/01/05 07:27:29;;;;;;;20.55;7.40;;;3.00;87.60;;;;;;5036585;28;20029;-75
2022/01/05 07:29:55;;;;;;;14.20;5.47;;;3.00;87.80;;;;;;5036752;28;20032;-75
2022/01/05 07:32:20;;;;;;;18.92;6.90;;;3.00;87.80;;;;;;5036581;28;20021;-76
2022/01/05 07:34:47;;;;;;;5.40;1.80;;;3.00;87.60;;;;;;5035713;28;20044;-75
2022/01/05 07:37:12;;;;;;;5.10;2.03;;;3.00;85.10;;;;;;5036216;28;20036;-75
2022/01/05 07:39:40;;;;;;;6.30;2.42;;;2.90;84.00;;;;;;5036397;28;20029;-75
2022/01/05 07:42:06;;;;;;;7.38;3.17;;;2.90;82.70;;;;;;5036414;28;20111;-75
2022/01/05 07:44:32;;;;;;;7.90;3.50;;;2.90;82.50;;;;;;5034806;28;20140;-75
2022/01/05 07:46:57;;;;;;;3.40;1.25;;;2.90;81.90;;;;;;5035564;28;20033;-73
2022/01/05 07:49:23;;;;;;;1.23;0.80;;;2.70;81.80;;;;;;5036131;28;20092;-75
2022/01/05 07:51:48;;;;;;;3.38;0.90;;;2.50;83.10;;;;;;5035783;28;20032;-75
2022/01/05 07:54:14;;;;;;;0.88;0.80;;;2.50;83.50;;;;;;5054103;28;20056;-74
2022/01/05 07:56:39;;;;;;;1.15;0.82;;;2.50;84.30;;;;;;5053821;28;20082;-73
2022/01/05 07:59:05;;;;;;;4.22;1.50;;;2.40;83.80;;;;;;5036130;28;20504;-75
2022/01/05 08:01:30;;;;;;;3.72;1.35;;;2.30;84.50;;;;;;5053674;28;20021;-73
2022/01/05 08:03:56;;;;;;;4.95;1.55;;;2.40;83.20;;;;;;5053502;28;20029;-74
2022/01/05 08:06:23;;;;;;;3.00;0.75;;;2.40;82.20;;;;;;5035560;28;20049;-73
2022/01/05 08:08:50;;;;;;;4.15;1.65;;;2.40;81.00;;;;;;5053401;28;20057;-74
2022/01/05 08:11:17;;;;;;;2.13;1.02;;;2.40;80.60;;;;;;5035533;28;20020;-73
2022/01/05 08:13:43;;;;;;;3.38;1.15;;;2.40;80.60;;;;;;5035811;28;20025;-74
2022/01/05 08:16:09;;;;;;;6.90;1.55;;;2.30;78.40;;;;;;5053552;28;20025;-74
2022/01/05 08:18:34;;;;;;;2.55;1.13;;;2.30;79.00;;;;;;5053384;28;20032;-73
2022/01/05 08:21:00;;;;;;;4.40;1.02;;;2.30;77.80;;;;;;5035493;28;20027;-74
2022/01/05 08:23:26;;;;;;;4.03;1.17;;;2.30;77.10;;;;;;5035533;28;20029;-74
2022/01/05 08:25:54;;;;;;;4.85;1.48;;;2.20;76.60;;;;;;5053405;28;20466;-74
2022/01/05 08:28:20;;;;;;;5.40;1.30;;;2.10;77.00;;;;;;5035384;28;20025;-74
2022/01/05 08:30:46;;;;;;;5.13;1.60;;;2.00;76.70;;;;;;5035455;28;20485;-74
2022/01/05 08:33:13;;;;;;;5.32;1.08;;;1.90;75.50;;;;;;5053132;28;20031;-74
2022/01/05 08:35:39;;;;;;;2.65;1.20;;;1.90;76.40;;;;;;5053046;28;20501;-74
2022/01/05 08:38:05;;;;;;;6.63;1.45;;;1.90;76.50;;;;;;5034998;28;20047;-74
2022/01/05 08:40:33;;;;;;;6.13;1.42;;;1.90;75.90;;;;;;5034407;28;20025;-74
2022/01/05 08:43:02;;;;;;;9.15;1.67;;;2.10;75.50;;;;;;5034264;28;20052;-72
2022/01/05 08:45:28;;;;;;;4.38;1.77;;;2.20;77.00;;;;;;5034632;28;20634;-73
2022/01/05 08:47:55;;;;;;;6.05;1.20;;;2.40;76.80;;;;;;5053360;28;20024;-74
2022/01/05 08:50:23;;;;;;;3.63;1.33;;;2.50;73.20;;;;;;5040012;28;20047;-73
2022/01/05 08:52:50;;;;;;;7.82;1.73;;;2.60;72.80;;;;;;5067146;28;20025;-74
2022/01/05 08:55:18;;;;;;;5.25;1.95;;;2.60;72.40;;;;;;5041070;28;20021;-73
2022/01/05 08:57:43;;;;;;;5.97;1.70;;;2.70;71.50;;;;;;5034923;28;20036;-73
2022/01/05 09:00:12;;;;;;;3.35;1.42;;;2.80;71.00;;;;;;5034901;28;20021;-73
2022/01/05 09:02:38;;;;;;;5.97;1.38;;;2.90;70.60;;;;;;5034645;28;20029;-73
2022/01/05 09:05:04;;;;;;;6.43;1.42;;;3.00;71.70;;;;;;5034915;28;20385;-73
2022/01/05 09:07:30;;;;;;;5.10;1.42;;;3.50;77.40;;;;;;5034551;28;20053;-74
2022/01/05 09:09:56;;;;;;;4.20;1.55;;;3.80;72.50;;;;;;5035104;28;20075;-73
2022/01/05 09:12:21;;;;;;;3.88;1.50;;;4.20;70.70;;;;;;5034423;28;20027;-74
2022/01/05 09:14:47;;;;;;;9.20;2.47;;;4.00;64.50;;;;;;5034268;28;20029;-73
2022/01/05 09:17:13;;;;;;;7.75;1.73;;;3.70;65.20;;;;;;5034651;28;20037;-74
2022/01/05 09:19:38;;;;;;;6.05;1.73;;;3.60;66.00;;;;;;5052403;28;20036;-74
2022/01/05 09:22:05;;;;;;;7.60;2.72;;;3.50;67.10;;;;;;5034494;28;20025;-74
2022/01/05 09:24:32;;;;;;;6.85;1.20;;;3.70;67.80;;;;;;5034388;28;20438;-73
2022/01/05 09:27:02;;;;;;;4.30;1.48;;;3.60;64.40;;;;;;5034563;28;20029;-74
2022/01/05 09:29:31;;;;;;;5.82;1.85;;;3.40;62.70;;;;;;5034559;28;20036;-73
2022/01/05 09:31:57;;;;;;;6.22;2.17;;;3.20;64.40;;;;;;5018451;28;20482;-74
2022/01/05 09:34:23;;;;;;;3.55;1.45;;;3.30;63.80;;;;;;5034097;28;20078;-74
2022/01/05 09:36:56;;;;;;;3.70;1.35;;;3.30;61.60;;;;;;5034272;28;20040;-74
2022/01/05 09:42:07;;;;;;;4.35;1.30;;;3.20;60.80;;;;;;5052098;28;20028;-74
2022/01/05 09:44:35;;;;;;;4.97;1.08;;;3.20;59.40;;;;;;5034125;28;20021;-74
2022/01/05 09:47:20;;;;;;;7.57;1.42;;;3.40;59.70;;;;;;5052178;28;20036;-74
2022/01/05 09:50:03;;;;;;;14.32;1.85;;;3.20;59.50;;;;;;5052210;28;20386;-74
2022/01/05 09:52:31;;;;;;;5.10;1.42;;;2.90;59.70;;;;;;5052223;28;20041;-73
2022/01/05 09:54:57;;;;;;;11.63;2.95;;;2.90;60.90;;;;;;5034217;28;20025;-74
2022/01/05 09:57:23;;;;;;;6.75;1.70;;;2.80;60.60;;;;;;5033731;28;20061;-73
2022/01/05 09:59:50;;;;;;;7.50;1.23;;;2.70;61.00;;;;;;5055154;28;20060;-73
2022/01/05 10:02:17;;;;;;;7.68;2.22;;;2.50;62.10;;;;;;5037759;28;20370;-74
2022/01/05 10:04:44;;;;;;;6.75;1.15;;;2.50;63.90;;;;;;5055763;28;20048;-74
2022/01/05 10:07:11;;;;;;;4.00;1.40;;;2.50;64.90;;;;;;5055776;28;20060;-74
2022/01/05 10:09:38;;;;;;;5.57;1.40;;;2.60;64.50;;;;;;5055603;28;20064;-74
2022/01/05 10:12:04;;;;;;;6.78;1.75;;;2.60;65.20;;;;;;5055639;28;20025;-74
2022/01/05 10:14:30;;;;;;;8.52;1.60;;;2.70;64.80;;;;;;5055814;28;20127;-73
2022/01/05 10:17:03;;;;;;;7.55;1.65;;;2.80;65.30;;;;;;5055702;28;20112;-74
2022/01/05 10:19:28;;;;;;;5.95;1.70;;;2.90;65.70;;;;;;5055616;28;20064;-73
2022/01/05 10:21:56;;;;;;;6.25;1.75;;;3.00;66.20;;;;;;5054108;28;20068;-74
2022/01/05 10:24:47;;;;;;;6.30;1.88;;;3.40;65.50;;;;;;5055334;28;20021;-74
2022/01/05 10:27:24;;;;;;;6.10;2.25;;;4.00;64.50;;;;;;5055162;28;20021;-74
2022/01/05 10:30:04;;;;;;;3.63;1.60;;;4.00;63.80;;;;;;5055312;28;20021;-74
2022/01/05 10:32:33;;;;;;;6.43;2.17;;;3.80;64.90;;;;;;5054980;28;20025;-73
2022/01/05 10:35:18;;;;;;;5.03;1.42;;;3.60;64.90;;;;;;5054963;28;20072;-73
2022/01/05 10:37:55;;;;;;;4.65;1.40;;;4.00;63.20;;;;;;5053709;28;20037;-74
2022/01/05 10:40:22;;;;;;;5.13;1.55;;;4.50;62.30;;;;;;5052928;28;20547;-74
2022/01/05 10:42:53;;;;;;;6.55;1.70;;;5.20;61.00;;;;;;5054954;28;20107;-74
2022/01/05 10:45:43;;;;;;;6.70;1.65;;;5.30;57.20;;;;;;5054981;28;20025;-73
2022/01/05 10:48:11;;;;;;;5.07;1.30;;;5.10;54.60;;;;;;5026645;28;20048;-74
2022/01/05 10:50:37;;;;;;;6.88;1.65;;;5.20;54.50;;;;;;5037025;28;20048;-74
2022/01/05 10:53:04;;;;;;;4.95;1.65;;;5.00;52.00;;;;;;5055017;28;20487;-74
2022/01/05 10:55:32;;;;;;;3.95;1.33;;;5.20;51.60;;;;;;5055006;28;20104;-74
2022/01/05 10:58:04;;;;;;;6.00;1.48;;;4.90;50.40;;;;;;5054850;28;20045;-74
2022/01/05 11:00:39;;;;;;;4.80;2.10;;;4.30;53.30;;;;;;5054694;28;20021;-73
2022/01/05 11:03:26;;;;;;;5.95;1.55;;;3.70;55.80;;;;;;5054848;28;20025;-74
2022/01/05 11:06:16;;;;;;;8.45;1.95;;;3.40;57.90;;;;;;5054619;28;20488;-74
2022/01/05 11:08:54;;;;;;;7.38;1.48;;;3.60;58.70;;;;;;5054451;28;20064;-74
2022/01/05 11:11:41;;;;;;;6.60;2.25;;;4.10;56.20;;;;;;5054642;28;20044;-74
2022/01/05 11:14:12;;;;;;;13.02;2.83;;;4.70;51.70;;;;;;5036876;28;20025;-74
2022/01/05 11:16:39;;;;;;;4.78;1.40;;;5.40;47.90;;;;;;5054671;28;20017;-74
2022/01/05 11:19:23;;;;;;;6.55;1.45;;;6.00;45.60;;;;;;5054668;28;20440;-73
2022/01/05 11:22:17;;;;;;;8.60;1.90;;;6.40;43.70;;;;;;5057563;28;20047;-74
2022/01/05 11:24:47;;;;;;;4.97;1.40;;;5.40;44.60;;;;;;5056289;28;20083;-73
2022/01/05 11:27:24;;;;;;;8.90;1.73;;;4.40;48.60;;;;;;5054237;28;20075;-74
2022/01/05 11:29:50;;;;;;;7.43;1.48;;;3.80;50.40;;;;;;5054268;28;20497;-74
2022/01/05 11:32:20;;;;;;;6.68;1.80;;;3.60;52.00;;;;;;5054497;28;20036;-73
2022/01/05 11:34:46;;;;;;;10.43;3.80;;;3.40;53.70;;;;;;5054275;28;20041;-73
2022/01/05 11:37:12;;;;;;;12.55;4.57;;;3.50;54.80;;;;;;5054289;28;20404;-73
2022/01/05 11:39:57;;;;;;;8.00;2.08;;;3.50;55.80;;;;;;5053871;28;20485;-73
2022/01/05 11:42:32;;;;;;;14.20;2.03;;;3.40;56.50;;;;;;5053862;28;20375;-73
2022/01/05 11:44:58;;;;;;;6.28;1.83;;;3.20;56.40;;;;;;5054198;28;20218;-73
2022/01/05 11:47:34;;;;;;;8.23;2.15;;;3.10;57.00;;;;;;5053831;28;20043;-73
2022/01/05 11:50:26;;;;;;;5.97;1.83;;;3.60;56.20;;;;;;5053839;28;20036;-73
2022/01/05 11:53:00;;;;;;;8.48;2.03;;;4.10;53.40;;;;;;5050025;28;20559;-72
2022/01/05 11:55:28;;;;;;;9.77;2.50;;;4.50;52.80;;;;;;5053306;28;20082;-73
2022/01/05 11:58:12;;;;;;;11.60;2.55;;;6.70;48.00;;;;;;5060280;28;20113;-74
2022/01/05 12:00:38;;;;;;;10.32;2.60;;;8.10;42.50;;;;;;5052638;28;20029;-74
2022/01/05 12:03:04;;;;;;;14.30;2.05;;;9.10;39.70;;;;;;5053172;28;20029;-73
2022/01/05 12:06:06;;;;;;;9.65;2.45;;;10.90;37.30;;;;;;5034384;28;20572;-76
2022/01/05 12:08:52;;;;;;;9.77;2.55;;;12.90;32.60;;;;;;5035486;28;20049;-73
2022/01/05 12:11:41;;;;;;;7.22;2.40;;;13.30;29.20;;;;;;5068708;28;20116;-74
2022/01/05 12:14:20;;;;;;;6.95;1.85;;;13.30;27.30;;;;;;5053553;28;20032;-74
2022/01/05 12:17:07;;;;;;;6.35;1.60;;;12.90;26.80;;;;;;5053614;28;20029;-74
2022/01/05 12:19:35;;;;;;;8.65;2.25;;;12.50;28.10;;;;;;5068668;28;20025;-72
2022/01/05 12:22:16;;;;;;;8.30;2.40;;;10.80;30.40;;;;;;5067961;28;20416;-72
2022/01/05 12:25:09;;;;;;;3.95;1.65;;;11.70;32.30;;;;;;5053308;28;20052;-73
2022/01/05 12:27:50;;;;;;;9.23;2.17;;;12.80;30.00;;;;;;5068753;28;20159;-72
2022/01/05 12:30:19;;;;;;;6.75;1.70;;;12.20;29.40;;;;;;5069037;28;20103;-74
2022/01/05 12:32:46;;;;;;;6.65;2.55;;;12.20;31.10;;;;;;5068530;28;20372;-73
2022/01/05 12:35:15;;;;;;;5.28;1.88;;;11.30;31.80;;;;;;5019181;28;20090;-73
2022/01/05 12:37:55;;;;;;;8.52;2.08;;;9.50;34.40;;;;;;5069378;28;20045;-74
2022/01/05 12:40:47;;;;;;;4.45;1.48;;;8.90;35.20;;;;;;5080697;28;20475;-73
2022/01/05 12:43:13;;;;;;;5.65;1.55;;;9.00;35.80;;;;;;5055851;28;20029;-73
2022/01/05 12:45:44;;;;;;;4.75;1.80;;;10.40;34.90;;;;;;5089902;28;20048;-74
2022/01/05 12:48:32;;;;;;;5.53;1.52;;;11.50;33.10;;;;;;5089107;28;20029;-72
2022/01/05 12:51:20;;;;;;;6.50;1.85;;;13.20;31.10;;;;;;5087111;28;20017;-72
2022/01/05 12:54:06;;;;;;;6.47;1.70;;;13.30;28.90;;;;;;5066030;28;20104;-72
2022/01/05 12:56:32;;;;;;;10.25;2.50;;;12.60;28.90;;;;;;5053503;28;20165;-73
2022/01/05 12:58:59;;;;;;;7.78;1.77;;;11.70;29.30;;;;;;5068858;28;20029;-74
2022/01/05 13:01:27;;;;;;;7.45;1.65;;;12.40;30.80;;;;;;5068624;28;20025;-73
2022/01/05 13:03:54;;;;;;;6.30;2.35;;;11.00;31.20;;;;;;5070965;28;20098;-75
2022/01/05 13:06:25;;;;;;;6.80;1.77;;;11.00;32.30;;;;;;5054189;28;20017;-74